Time;durP1;ratioP1;P1;durP2;ratioP2;P2;SDS_P1;SDS_P2;PMS_P1;PMS_P2;Temp;Humidity;BMP_temperature;BMP_pressure;BME280_temperature;BME280_humidity;BME280_pressure;Samples;Min_cycle;Max_cycle;Signal;HPM_P1;HPM_P2
2021/03/05 00:01:44;;;;;;;6.93;3.35;;;5.20;86.40;;;;;;5036855;28;20046;-58
2021/03/05 00:04:16;;;;;;;8.13;3.58;;;5.20;85.80;;;;;;5034833;28;20119;-58
2021/03/05 00:06:44;;;;;;;5.70;3.05;;;5.20;85.80;;;;;;5035954;28;20380;-59
2021/03/05 00:09:16;;;;;;;7.20;2.92;;;5.10;86.00;;;;;;5033224;28;20053;-57
2021/03/05 00:11:43;;;;;;;5.40;2.10;;;5.00;86.00;;;;;;5033305;28;20049;-58
2021/03/05 00:14:10;;;;;;;6.50;2.92;;;5.10;85.80;;;;;;5035143;28;20267;-57
2021/03/05 00:16:38;;;;;;;7.13;2.45;;;5.10;86.00;;;;;;5031381;28;20057;-58
2021/03/05 00:19:05;;;;;;;7.97;2.78;;;5.00;86.10;;;;;;5035425;28;20057;-58
2021/03/05 00:21:33;;;;;;;7.72;2.53;;;5.00;85.70;;;;;;5038209;28;20408;-58
2021/03/05 00:24:01;;;;;;;7.53;3.00;;;5.10;85.90;;;;;;5041570;28;20157;-58
2021/03/05 00:26:30;;;;;;;7.28;3.83;;;5.10;85.80;;;;;;5033181;28;20080;-58
2021/03/05 00:29:02;;;;;;;6.97;2.90;;;5.00;86.00;;;;;;5036557;28;20401;-58
2021/03/05 00:31:30;;;;;;;6.53;2.97;;;4.90;86.30;;;;;;5035852;28;20041;-58
2021/03/05 00:33:57;;;;;;;8.15;3.08;;;4.90;86.60;;;;;;5032664;28;20057;-58
2021/03/05 00:36:25;;;;;;;6.40;2.95;;;5.00;86.20;;;;;;5029968;28;20116;-58
2021/03/05 00:38:52;;;;;;;6.68;2.60;;;5.00;85.90;;;;;;5030714;28;20362;-58
2021/03/05 00:41:19;;;;;;;6.90;2.83;;;5.00;86.00;;;;;;5031811;28;20049;-58
2021/03/05 00:43:49;;;;;;;6.55;2.60;;;5.00;85.60;;;;;;5039815;28;20080;-58
2021/03/05 00:46:16;;;;;;;7.88;2.92;;;5.10;85.50;;;;;;5031399;28;20094;-58
2021/03/05 00:48:43;;;;;;;11.15;3.67;;;5.00;85.60;;;;;;5033780;28;20053;-58
2021/03/05 00:51:10;;;;;;;9.88;3.50;;;5.00;85.70;;;;;;5030099;28;20494;-58
2021/03/05 00:53:38;;;;;;;8.45;3.75;;;5.00;84.80;;;;;;5015691;28;20140;-58
2021/03/05 00:56:09;;;;;;;6.75;3.38;;;5.00;85.00;;;;;;5015538;28;20041;-58
2021/03/05 00:58:37;;;;;;;10.70;4.68;;;5.00;85.30;;;;;;5044372;28;20121;-58
2021/03/05 01:01:09;;;;;;;8.88;3.00;;;4.90;85.10;;;;;;5046083;28;20364;-58
2021/03/05 01:03:36;;;;;;;9.88;4.28;;;4.90;85.30;;;;;;5030003;28;20092;-57
2021/03/05 01:06:05;;;;;;;9.75;4.35;;;4.90;85.00;;;;;;5032769;28;20041;-58
2021/03/05 01:08:33;;;;;;;10.88;4.18;;;4.90;85.10;;;;;;5027193;28;20041;-58
2021/03/05 01:11:03;;;;;;;6.68;3.08;;;4.90;85.20;;;;;;5046419;28;20056;-59
2021/03/05 01:13:37;;;;;;;10.15;3.58;;;4.90;85.10;;;;;;5030022;28;20124;-58
2021/03/05 01:16:06;;;;;;;8.80;3.28;;;4.90;85.00;;;;;;5030731;28;20049;-59
2021/03/05 01:18:35;;;;;;;8.95;3.97;;;5.00;85.10;;;;;;5032520;28;20052;-58
2021/03/05 01:21:06;;;;;;;9.93;3.53;;;4.90;85.40;;;;;;5034532;28;20065;-58
2021/03/05 01:23:33;;;;;;;10.13;3.95;;;5.00;85.30;;;;;;5033198;28;20033;-58
2021/03/05 01:26:00;;;;;;;14.02;4.82;;;5.00;85.40;;;;;;5042101;28;20288;-58
2021/03/05 01:28:31;;;;;;;11.10;4.05;;;5.00;85.40;;;;;;5036891;28;20054;-58
2021/03/05 01:30:58;;;;;;;10.57;3.67;;;5.00;85.20;;;;;;5038878;28;20391;-58
2021/03/05 01:33:25;;;;;;;7.30;2.65;;;4.90;85.20;;;;;;5034816;28;20375;-57
2021/03/05 01:35:54;;;;;;;9.18;3.90;;;5.00;85.20;;;;;;5033113;28;20045;-59
2021/03/05 01:38:21;;;;;;;9.20;4.25;;;4.90;85.10;;;;;;5031128;28;20064;-59
2021/03/05 01:40:49;;;;;;;8.93;4.28;;;4.90;85.20;;;;;;5035403;28;20049;-58
2021/03/05 01:43:18;;;;;;;11.18;4.78;;;4.90;85.50;;;;;;5033501;28;20065;-58
2021/03/05 01:45:48;;;;;;;10.20;3.55;;;4.90;85.60;;;;;;5034864;28;20130;-58
2021/03/05 01:48:17;;;;;;;11.05;4.13;;;4.90;86.10;;;;;;5035991;28;20044;-58
2021/03/05 01:50:58;;;;;;;10.30;4.25;;;4.90;85.60;;;;;;5034308;28;20049;-58
2021/03/05 01:53:25;;;;;;;9.13;3.95;;;4.90;85.40;;;;;;5031473;28;20049;-58
2021/03/05 01:55:52;;;;;;;14.20;4.72;;;5.00;85.20;;;;;;5030756;28;20336;-59
2021/03/05 01:58:20;;;;;;;8.75;3.95;;;4.90;85.70;;;;;;5034127;28;20237;-58
2021/03/05 02:00:50;;;;;;;8.88;4.22;;;4.90;85.90;;;;;;5028488;28;20349;-58
2021/03/05 02:03:17;;;;;;;10.75;4.63;;;4.90;85.90;;;;;;5032416;28;20449;-58
2021/03/05 02:05:45;;;;;;;6.88;3.60;;;5.00;85.50;;;;;;5034875;28;20069;-58
2021/03/05 02:08:14;;;;;;;11.48;4.13;;;4.90;85.50;;;;;;5034477;28;20053;-58
2021/03/05 02:10:42;;;;;;;11.10;4.68;;;4.90;85.20;;;;;;5030738;28;20140;-58
2021/03/05 02:13:10;;;;;;;10.23;4.25;;;4.90;85.00;;;;;;5033011;28;20244;-59
2021/03/05 02:15:39;;;;;;;9.40;4.22;;;4.80;85.20;;;;;;5032935;28;20060;-59
2021/03/05 02:18:13;;;;;;;12.50;4.00;;;4.90;85.60;;;;;;5032853;28;20053;-59
2021/03/05 02:20:55;;;;;;;7.68;3.03;;;4.90;85.60;;;;;;5032950;28;20037;-58
2021/03/05 02:23:53;;;;;;;11.63;3.65;;;4.90;85.40;;;;;;5033910;28;20362;-59
2021/03/05 02:26:54;;;;;;;9.32;3.85;;;4.80;85.70;;;;;;5047918;28;20113;-59
2021/03/05 02:29:57;;;;;;;11.77;4.38;;;4.80;85.40;;;;;;5028550;28;20057;-58
2021/03/05 02:32:34;;;;;;;10.52;3.78;;;4.80;85.20;;;;;;5036775;28;20064;-58
2021/03/05 02:35:03;;;;;;;9.45;4.57;;;4.80;85.50;;;;;;5035587;28;20087;-58
2021/03/05 02:37:35;;;;;;;11.23;3.88;;;4.80;85.50;;;;;;5035275;28;20045;-58
2021/03/05 02:40:06;;;;;;;13.48;5.40;;;4.80;85.90;;;;;;5027920;28;20124;-58
2021/03/05 02:42:42;;;;;;;10.85;3.95;;;4.80;85.90;;;;;;5034450;28;20061;-58
2021/03/05 02:45:11;;;;;;;9.05;3.70;;;4.80;86.10;;;;;;5035972;28;20072;-58
2021/03/05 02:47:42;;;;;;;9.40;4.40;;;4.80;86.30;;;;;;5034212;28;20050;-59
2021/03/05 02:50:13;;;;;;;7.97;3.53;;;4.80;86.30;;;;;;5035253;28;20052;-58
2021/03/05 02:52:42;;;;;;;9.55;3.50;;;4.80;86.30;;;;;;5033996;28;20351;-59
2021/03/05 02:55:12;;;;;;;8.20;3.85;;;4.80;86.00;;;;;;5029654;28;20077;-58
2021/03/05 02:57:46;;;;;;;9.63;3.67;;;4.90;85.80;;;;;;5035586;28;20088;-58
2021/03/05 03:00:15;;;;;;;9.52;3.88;;;4.90;85.50;;;;;;5036118;28;20057;-57
2021/03/05 03:02:44;;;;;;;10.68;4.00;;;4.80;85.90;;;;;;5035568;28;20244;-59
2021/03/05 03:05:14;;;;;;;9.20;3.63;;;4.90;85.90;;;;;;5035707;28;20053;-58
2021/03/05 03:07:44;;;;;;;12.00;4.47;;;4.90;85.50;;;;;;5037629;28;20091;-58
2021/03/05 03:10:13;;;;;;;8.52;3.22;;;4.90;85.70;;;;;;5035533;28;24980;-58
2021/03/05 03:12:42;;;;;;;9.60;4.70;;;4.90;85.30;;;;;;5035774;28;20052;-59
2021/03/05 03:15:11;;;;;;;7.72;3.33;;;4.90;85.40;;;;;;5033891;28;20222;-57
2021/03/05 03:17:40;;;;;;;10.82;4.32;;;4.90;85.40;;;;;;5035272;28;20068;-58
2021/03/05 03:20:11;;;;;;;9.73;3.60;;;4.80;85.50;;;;;;5035344;28;20068;-58
2021/03/05 03:22:40;;;;;;;9.77;4.38;;;4.80;84.90;;;;;;5041320;28;20045;-58
2021/03/05 03:25:10;;;;;;;10.70;3.85;;;4.80;84.90;;;;;;5037493;28;20167;-58
2021/03/05 03:27:38;;;;;;;10.15;3.67;;;4.80;84.70;;;;;;5041999;28;20049;-58
2021/03/05 03:30:08;;;;;;;10.88;3.80;;;4.80;84.70;;;;;;5035980;28;20371;-58
2021/03/05 03:32:36;;;;;;;9.07;3.88;;;4.90;85.00;;;;;;5050754;28;20053;-58
2021/03/05 03:35:05;;;;;;;9.98;4.22;;;4.80;85.20;;;;;;5047082;28;20048;-58
2021/03/05 03:37:33;;;;;;;9.68;4.15;;;4.80;85.30;;;;;;5035891;28;20057;-57
2021/03/05 03:40:05;;;;;;;9.90;3.90;;;4.80;85.50;;;;;;5052479;28;20130;-57
2021/03/05 03:42:43;;;;;;;9.80;3.45;;;4.70;85.50;;;;;;5017943;28;20049;-58
2021/03/05 03:45:12;;;;;;;8.30;2.83;;;4.70;86.70;;;;;;5038676;28;20050;-58
2021/03/05 03:47:40;;;;;;;7.20;3.72;;;4.60;87.30;;;;;;5035024;28;20045;-59
2021/03/05 03:50:12;;;;;;;10.15;4.43;;;4.70;87.10;;;;;;5035578;28;20056;-59
2021/03/05 03:52:47;;;;;;;9.32;4.03;;;4.80;85.60;;;;;;5036867;28;20059;-58
2021/03/05 03:55:16;;;;;;;9.15;4.05;;;4.70;85.60;;;;;;5037983;28;20048;-59
2021/03/05 03:57:47;;;;;;;8.23;4.00;;;4.70;85.80;;;;;;5036171;28;20398;-59
2021/03/05 04:00:17;;;;;;;6.72;3.53;;;4.70;85.10;;;;;;5037628;28;20046;-58
2021/03/05 04:02:47;;;;;;;13.27;5.03;;;4.70;85.60;;;;;;5034468;28;20053;-57
2021/03/05 04:05:18;;;;;;;11.70;4.28;;;4.70;85.80;;;;;;5031544;28;20120;-58
2021/03/05 04:07:47;;;;;;;9.27;4.22;;;4.70;86.60;;;;;;5029633;28;20281;-58
2021/03/05 04:10:16;;;;;;;8.05;3.75;;;4.60;86.70;;;;;;5035037;28;20053;-58
2021/03/05 04:12:48;;;;;;;8.52;4.07;;;4.60;86.70;;;;;;5040596;28;20080;-58
2021/03/05 04:15:17;;;;;;;9.18;4.25;;;4.60;86.20;;;;;;5034686;28;20051;-59
2021/03/05 04:17:45;;;;;;;10.75;3.13;;;4.70;86.00;;;;;;5034666;28;20056;-58
2021/03/05 04:20:15;;;;;;;10.93;4.30;;;4.70;85.50;;;;;;5033001;28;20049;-58
2021/03/05 04:22:46;;;;;;;12.13;4.15;;;4.70;85.50;;;;;;5033899;28;20053;-57
2021/03/05 04:25:15;;;;;;;9.95;4.55;;;4.70;85.30;;;;;;5019164;28;20368;-58
2021/03/05 04:27:44;;;;;;;11.75;3.80;;;4.60;86.10;;;;;;5038826;28;20064;-58
2021/03/05 04:30:15;;;;;;;10.45;4.18;;;4.60;86.80;;;;;;5038509;28;20341;-58
2021/03/05 04:32:44;;;;;;;8.32;3.70;;;4.60;86.90;;;;;;5037552;28;20057;-58
2021/03/05 04:35:14;;;;;;;12.43;4.15;;;4.70;86.00;;;;;;5011543;28;20045;-58
2021/03/05 04:37:43;;;;;;;7.40;3.75;;;4.60;85.90;;;;;;5031084;28;20112;-59
2021/03/05 04:40:14;;;;;;;11.02;4.97;;;4.60;86.30;;;;;;5012220;28;20053;-59
2021/03/05 04:42:42;;;;;;;11.38;3.58;;;4.70;86.80;;;;;;5032880;28;20053;-58
2021/03/05 04:45:09;;;;;;;10.25;4.50;;;4.60;87.40;;;;;;5033745;28;20041;-59
2021/03/05 04:47:36;;;;;;;9.90;3.78;;;4.70;87.30;;;;;;5014049;28;20038;-58
2021/03/05 04:50:07;;;;;;;8.52;3.88;;;4.70;87.00;;;;;;5031266;28;20340;-58
2021/03/05 04:52:34;;;;;;;9.73;4.38;;;4.80;86.90;;;;;;5031308;28;20072;-58
2021/03/05 04:55:05;;;;;;;9.18;4.05;;;4.80;86.00;;;;;;5033886;28;20061;-59
2021/03/05 04:57:34;;;;;;;12.30;4.22;;;4.80;85.40;;;;;;5030985;28;20049;-57
2021/03/05 05:00:02;;;;;;;9.30;4.40;;;5.00;85.80;;;;;;5033809;28;20057;-59
2021/03/05 05:02:32;;;;;;;8.00;3.45;;;4.90;85.00;;;;;;5032840;28;20072;-58
2021/03/05 05:04:59;;;;;;;9.10;3.75;;;4.90;85.10;;;;;;5034682;28;20049;-58
2021/03/05 05:07:26;;;;;;;8.02;3.80;;;4.80;86.10;;;;;;5035790;28;20487;-58
2021/03/05 05:09:54;;;;;;;10.80;3.70;;;4.70;86.50;;;;;;5033495;28;20338;-58
2021/03/05 05:12:23;;;;;;;7.90;3.65;;;4.70;87.00;;;;;;5031373;28;20057;-57
2021/03/05 05:14:51;;;;;;;11.75;4.38;;;4.70;86.00;;;;;;5029038;28;20355;-59
2021/03/05 05:17:18;;;;;;;12.48;3.80;;;4.60;86.60;;;;;;5045675;28;20056;-58
2021/03/05 05:19:46;;;;;;;9.25;4.18;;;4.60;86.30;;;;;;5033750;28;20046;-58
2021/03/05 05:22:13;;;;;;;13.10;5.00;;;4.60;86.70;;;;;;5036518;28;20359;-59
2021/03/05 05:24:40;;;;;;;13.75;5.15;;;4.70;87.00;;;;;;5035068;28;20355;-58
2021/03/05 05:27:07;;;;;;;10.65;4.22;;;4.70;87.50;;;;;;5039524;28;20073;-58
2021/03/05 05:29:34;;;;;;;9.48;4.45;;;4.70;87.20;;;;;;5032488;28;20041;-59
2021/03/05 05:32:07;;;;;;;10.82;4.65;;;4.60;87.10;;;;;;5031900;28;20394;-59
2021/03/05 05:34:38;;;;;;;13.93;5.97;;;4.60;86.80;;;;;;5034590;28;20055;-58
2021/03/05 05:37:05;;;;;;;15.35;4.82;;;4.60;87.30;;;;;;5037270;28;20061;-57
2021/03/05 05:39:33;;;;;;;10.15;4.85;;;4.60;87.10;;;;;;5038179;28;20061;-59
2021/03/05 05:42:10;;;;;;;11.30;4.80;;;4.60;86.20;;;;;;5039642;28;20302;-59
2021/03/05 05:44:40;;;;;;;13.30;3.97;;;4.50;86.90;;;;;;5037904;28;20345;-58
2021/03/05 05:47:14;;;;;;;9.20;3.97;;;4.60;86.20;;;;;;5030728;28;20068;-58
2021/03/05 05:49:43;;;;;;;7.72;4.32;;;4.50;86.30;;;;;;5032759;28;20435;-58
2021/03/05 05:52:19;;;;;;;11.52;4.47;;;4.60;86.40;;;;;;5034409;28;20045;-58
2021/03/05 05:54:49;;;;;;;11.20;3.95;;;4.50;86.60;;;;;;5034909;28;20054;-59
2021/03/05 05:57:17;;;;;;;9.18;4.63;;;4.50;86.80;;;;;;5029857;28;20084;-57
2021/03/05 05:59:50;;;;;;;12.77;5.22;;;4.50;87.50;;;;;;5031984;28;20368;-58
2021/03/05 06:02:20;;;;;;;13.35;4.57;;;4.60;87.60;;;;;;5029902;28;20069;-59
2021/03/05 06:04:47;;;;;;;10.10;5.00;;;4.60;87.80;;;;;;5030610;28;20064;-58
2021/03/05 06:07:20;;;;;;;13.55;4.68;;;4.60;87.50;;;;;;5030674;28;20048;-59
2021/03/05 06:09:49;;;;;;;11.15;4.90;;;4.50;87.30;;;;;;5030847;28;20380;-59
2021/03/05 06:12:20;;;;;;;12.07;5.40;;;4.50;88.10;;;;;;5030333;28;20317;-58
2021/03/05 06:14:49;;;;;;;13.52;4.60;;;4.50;88.50;;;;;;5031672;28;20049;-58
2021/03/05 06:17:19;;;;;;;10.75;4.13;;;4.60;88.20;;;;;;5041818;28;20103;-58
2021/03/05 06:19:55;;;;;;;10.38;4.18;;;4.70;88.10;;;;;;5035403;28;20049;-58
2021/03/05 06:22:25;;;;;;;8.88;3.50;;;4.80;86.50;;;;;;5034798;28;20041;-59
2021/03/05 06:24:52;;;;;;;12.98;4.20;;;4.80;86.50;;;;;;5035278;28;20107;-58
2021/03/05 06:27:27;;;;;;;10.52;4.18;;;4.70;86.90;;;;;;5036905;28;20275;-59
2021/03/05 06:29:55;;;;;;;8.85;3.63;;;4.70;86.80;;;;;;5030435;28;20221;-58
2021/03/05 06:32:37;;;;;;;12.27;4.25;;;4.90;85.60;;;;;;5037242;28;20101;-58
2021/03/05 06:35:06;;;;;;;8.85;4.15;;;4.80;85.30;;;;;;5038674;28;20055;-58
2021/03/05 06:37:44;;;;;;;13.20;4.57;;;4.80;86.40;;;;;;5038684;28;20343;-58
2021/03/05 06:40:13;;;;;;;9.65;3.92;;;4.80;85.00;;;;;;5033362;28;20188;-58
2021/03/05 06:42:52;;;;;;;12.82;3.83;;;4.90;85.00;;;;;;5035960;28;20135;-58
2021/03/05 06:45:21;;;;;;;10.15;4.55;;;4.80;85.90;;;;;;5035543;28;20857;-58
2021/03/05 06:48:14;;;;;;;8.30;3.75;;;4.80;86.60;;;;;;5037457;28;20103;-58
2021/03/05 06:50:42;;;;;;;9.10;3.92;;;4.90;83.20;;;;;;5030293;28;20060;-59
2021/03/05 06:53:20;;;;;;;8.30;3.83;;;5.00;84.30;;;;;;5036955;28;20060;-59
2021/03/05 06:55:48;;;;;;;8.43;3.17;;;5.10;83.20;;;;;;5034068;28;20054;-57
2021/03/05 06:58:15;;;;;;;11.05;4.95;;;5.10;83.50;;;;;;5036466;28;20352;-58
2021/03/05 07:00:42;;;;;;;8.70;3.58;;;5.20;83.60;;;;;;5036011;28;20062;-58
2021/03/05 07:03:20;;;;;;;6.90;3.20;;;5.20;83.70;;;;;;5034864;28;20228;-59
2021/03/05 07:05:48;;;;;;;7.25;3.95;;;5.20;84.80;;;;;;5033061;28;20045;-58
2021/03/05 07:08:36;;;;;;;10.52;3.95;;;5.20;84.90;;;;;;5033740;28;20068;-59
2021/03/05 07:11:08;;;;;;;7.55;3.50;;;5.10;84.10;;;;;;5019528;28;20064;-58
2021/03/05 07:13:48;;;;;;;8.85;3.75;;;5.10;83.90;;;;;;5032975;28;20148;-58
2021/03/05 07:16:15;;;;;;;8.68;4.03;;;5.00;83.70;;;;;;5034162;28;20083;-58
2021/03/05 07:18:44;;;;;;;11.27;4.57;;;5.00;81.70;;;;;;5035312;28;20065;-58
2021/03/05 07:21:15;;;;;;;9.27;4.72;;;4.80;82.60;;;;;;5038110;28;20084;-59
2021/03/05 07:23:46;;;;;;;8.23;3.10;;;4.70;82.90;;;;;;5035701;28;20037;-59
2021/03/05 07:26:18;;;;;;;8.98;3.75;;;4.70;82.60;;;;;;5042811;28;20120;-59
2021/03/05 07:28:47;;;;;;;8.25;2.95;;;4.70;81.90;;;;;;5031838;28;20045;-58
2021/03/05 07:31:17;;;;;;;10.30;4.10;;;4.60;82.60;;;;;;5028671;28;20060;-59
2021/03/05 07:33:50;;;;;;;13.88;3.90;;;4.60;83.10;;;;;;5035376;28;20057;-58
2021/03/05 07:36:21;;;;;;;9.13;3.88;;;4.50;83.70;;;;;;5035441;28;21026;-59
2021/03/05 07:38:53;;;;;;;7.53;2.90;;;4.60;83.10;;;;;;5048247;28;20050;-59
2021/03/05 07:41:25;;;;;;;7.93;3.63;;;4.60;82.60;;;;;;5033537;28;20066;-58
2021/03/05 07:43:53;;;;;;;6.65;2.92;;;4.60;83.40;;;;;;5031475;28;20356;-59
2021/03/05 07:46:22;;;;;;;9.85;3.38;;;4.70;82.00;;;;;;5032570;28;20312;-59
2021/03/05 07:48:51;;;;;;;8.30;3.03;;;4.70;80.70;;;;;;5030613;28;20140;-59
2021/03/05 07:51:19;;;;;;;9.50;3.08;;;4.70;80.50;;;;;;5036283;28;20593;-59
2021/03/05 07:53:53;;;;;;;;;;;4.70;80.90;;;;;;5042008;28;20058;-58
2021/03/05 07:56:39;;;;;;;7.68;2.28;;;4.70;82.30;;;;;;5040454;28;19935;-59
2021/03/05 07:59:07;;;;;;;6.82;3.45;;;4.70;80.90;;;;;;5040030;28;20053;-58
2021/03/05 08:02:04;;;;;;;8.25;3.67;;;4.80;80.20;;;;;;5038973;28;20125;-58
2021/03/05 08:05:03;;;;;;;8.93;3.15;;;4.90;80.00;;;;;;4998574;28;20437;-58
2021/03/05 08:07:32;;;;;;;7.13;3.05;;;4.90;80.10;;;;;;5038241;28;20243;-58
2021/03/05 08:10:00;;;;;;;7.50;3.05;;;4.90;80.30;;;;;;5040246;28;20060;-59
2021/03/05 08:12:36;;;;;;;8.27;4.18;;;5.00;79.30;;;;;;5041255;28;20112;-58
2021/03/05 08:15:21;;;;;;;7.30;3.22;;;5.20;77.80;;;;;;5031661;28;20045;-58
2021/03/05 08:17:50;;;;;;;7.78;2.88;;;5.30;78.00;;;;;;5029990;28;20388;-58
2021/03/05 08:20:49;;;;;;;7.13;3.42;;;5.40;77.00;;;;;;5030980;28;20348;-58
2021/03/05 08:23:17;;;;;;;9.10;3.78;;;5.50;76.80;;;;;;5031527;28;20095;-58
2021/03/05 08:25:55;;;;;;;8.00;3.03;;;5.70;76.90;;;;;;5033724;28;20596;-58
2021/03/05 08:28:43;;;;;;;6.38;3.17;;;5.80;76.00;;;;;;5039642;28;20060;-58
2021/03/05 08:31:35;;;;;;;6.57;2.78;;;5.70;76.50;;;;;;5036905;28;20133;-58
2021/03/05 08:34:27;;;;;;;9.40;3.47;;;5.60;75.90;;;;;;5034779;28;20091;-58
2021/03/05 08:36:55;;;;;;;6.57;3.00;;;5.60;75.40;;;;;;5030449;28;20069;-58
2021/03/05 08:39:28;;;;;;;6.45;2.50;;;5.60;76.40;;;;;;5022906;28;20378;-58
2021/03/05 08:42:34;;;;;;;7.53;3.40;;;5.70;76.80;;;;;;5036567;28;20038;-58
2021/03/05 08:45:28;;;;;;;6.10;2.88;;;5.70;75.90;;;;;;5041129;28;20382;-58
2021/03/05 08:47:58;;;;;;;7.43;3.35;;;5.80;76.30;;;;;;5007639;28;20505;-58
2021/03/05 08:50:31;;;;;;;9.90;3.70;;;5.80;75.10;;;;;;374558;28;10022049;-59
2021/03/05 08:53:03;;;;;;;6.97;2.90;;;5.90;74.60;;;;;;5035142;28;20609;-58
2021/03/05 08:55:31;;;;;;;8.02;3.20;;;5.80;74.00;;;;;;5029454;28;21246;-57
2021/03/05 08:57:59;;;;;;;7.70;3.22;;;5.70;75.70;;;;;;5031862;28;20395;-59
2021/03/05 09:00:36;;;;;;;7.40;2.67;;;5.90;75.10;;;;;;5034983;28;20054;-58
2021/03/05 09:03:08;;;;;;;7.80;3.40;;;6.20;73.50;;;;;;5037918;28;20224;-58
2021/03/05 09:05:37;;;;;;;6.72;2.65;;;6.20;73.60;;;;;;5040899;28;20058;-59
2021/03/05 09:08:09;;;;;;;8.10;2.55;;;6.20;72.80;;;;;;5039519;28;20244;-58
2021/03/05 09:10:42;;;;;;;10.02;3.17;;;6.20;73.80;;;;;;5040378;28;20041;-58
2021/03/05 09:13:10;;;;;;;6.07;2.83;;;6.40;72.50;;;;;;5034788;28;20054;-58
2021/03/05 09:15:46;;;;;;;7.25;2.58;;;6.40;72.70;;;;;;5039421;28;20072;-58
2021/03/05 09:18:15;;;;;;;8.27;3.58;;;6.50;72.20;;;;;;5039203;28;20045;-59
2021/03/05 09:20:45;;;;;;;8.45;3.08;;;6.40;72.60;;;;;;5040041;28;20053;-59
2021/03/05 09:23:21;;;;;;;7.97;3.45;;;6.40;71.80;;;;;;5041252;28;20050;-58
2021/03/05 09:25:56;;;;;;;7.32;3.05;;;6.50;72.20;;;;;;5042536;28;20057;-58
2021/03/05 09:28:24;;;;;;;7.40;2.65;;;6.40;71.50;;;;;;5037884;28;20056;-58
2021/03/05 09:30:53;;;;;;;8.20;3.08;;;6.40;71.20;;;;;;5040478;28;20049;-59
2021/03/05 09:33:31;;;;;;;6.88;2.55;;;6.40;70.90;;;;;;5039778;28;20057;-58
2021/03/05 09:36:03;;;;;;;7.78;2.67;;;6.50;69.40;;;;;;5036998;28;20048;-58
2021/03/05 09:38:34;;;;;;;5.65;2.45;;;6.40;69.30;;;;;;5039736;28;20053;-59
2021/03/05 09:41:14;;;;;;;7.25;2.50;;;6.30;69.30;;;;;;5038358;28;20108;-58
2021/03/05 09:43:41;;;;;;;9.57;3.25;;;6.40;70.50;;;;;;5020845;28;20046;-59
2021/03/05 09:46:23;;;;;;;6.82;2.70;;;6.30;69.50;;;;;;5034541;28;20053;-59
2021/03/05 09:48:51;;;;;;;5.35;2.47;;;6.20;69.80;;;;;;5036091;28;20045;-58
2021/03/05 09:51:19;;;;;;;8.43;2.45;;;6.30;69.90;;;;;;5033905;28;20542;-57
2021/03/05 09:53:54;;;;;;;7.30;2.92;;;6.30;70.50;;;;;;5040809;28;20230;-58
2021/03/05 09:56:24;;;;;;;6.55;2.15;;;6.40;69.40;;;;;;5037303;28;20049;-57
2021/03/05 09:58:56;;;;;;;5.45;1.80;;;6.40;69.60;;;;;;5035886;28;20333;-58
2021/03/05 10:01:24;;;;;;;4.85;1.80;;;6.50;69.00;;;;;;5032230;28;20071;-58
2021/03/05 10:03:53;;;;;;;4.00;1.90;;;6.60;69.60;;;;;;5037102;28;20049;-59
2021/03/05 10:06:20;;;;;;;2.50;1.27;;;6.70;67.30;;;;;;5038690;28;20561;-58
2021/03/05 10:08:47;;;;;;;3.65;1.63;;;6.70;68.20;;;;;;5053457;28;20041;-58
2021/03/05 10:11:15;;;;;;;5.40;1.67;;;6.80;66.50;;;;;;5039014;28;20049;-58
2021/03/05 10:13:52;;;;;;;5.72;2.22;;;7.00;67.10;;;;;;5037925;28;20041;-58
2021/03/05 10:16:22;;;;;;;4.20;2.03;;;7.50;66.00;;;;;;5038873;28;20041;-57
2021/03/05 10:18:51;;;;;;;15.63;5.75;;;7.90;63.20;;;;;;5035203;28;20385;-57
2021/03/05 10:21:21;;;;;;;12.40;6.40;;;8.00;62.20;;;;;;5038293;28;20320;-58
2021/03/05 10:23:51;;;;;;;19.10;10.88;;;8.00;62.90;;;;;;5036716;28;20057;-58
2021/03/05 10:26:22;;;;;;;12.23;7.07;;;8.20;60.10;;;;;;5047404;28;20364;-58
2021/03/05 10:28:55;;;;;;;10.27;6.05;;;8.50;60.40;;;;;;5038128;28;20042;-59
2021/03/05 10:31:45;;;;;;;35.25;21.02;;;8.70;57.70;;;;;;5036787;28;20051;-59
2021/03/05 10:34:29;;;;;;;13.07;7.90;;;8.90;55.90;;;;;;5036176;28;20061;-58
2021/03/05 10:36:58;;;;;;;8.80;3.30;;;8.70;57.10;;;;;;5030327;28;20061;-59
2021/03/05 10:39:26;;;;;;;6.15;2.05;;;8.20;58.80;;;;;;5036347;28;20061;-58
2021/03/05 10:41:56;;;;;;;7.35;3.33;;;8.00;60.50;;;;;;5052729;28;20038;-58
2021/03/05 10:44:24;;;;;;;6.00;2.97;;;8.00;60.50;;;;;;5033948;28;20092;-58
2021/03/05 10:46:51;;;;;;;12.90;9.43;;;8.20;59.10;;;;;;5031386;28;20068;-58
2021/03/05 10:49:19;;;;;;;10.98;5.07;;;8.10;60.30;;;;;;5046845;28;20053;-58
2021/03/05 10:51:46;;;;;;;6.30;3.13;;;8.20;59.60;;;;;;5035745;28;20069;-59
2021/03/05 10:54:14;;;;;;;8.80;4.65;;;7.90;60.30;;;;;;5028978;28;20291;-58
2021/03/05 10:56:41;;;;;;;15.98;8.20;;;8.30;59.10;;;;;;5030291;28;20058;-58
2021/03/05 10:59:13;;;;;;;25.30;10.40;;;10.40;53.50;;;;;;5034618;28;20046;-59
2021/03/05 11:01:45;;;;;;;22.23;9.48;;;12.60;45.70;;;;;;5039476;28;20391;-58
2021/03/05 11:04:13;;;;;;;15.60;5.95;;;12.80;41.90;;;;;;5039308;28;20638;-59
2021/03/05 11:06:40;;;;;;;18.30;7.10;;;12.90;41.70;;;;;;5038102;28;20062;-59
2021/03/05 11:09:10;;;;;;;52.90;18.15;;;13.40;39.90;;;;;;5035028;28;20057;-59
2021/03/05 11:11:40;;;;;;;68.90;22.17;;;15.30;36.70;;;;;;5037868;28;20045;-59
2021/03/05 11:14:18;;;;;;;34.15;13.32;;;14.80;35.60;;;;;;5036120;28;20075;-58
2021/03/05 11:16:46;;;;;;;20.02;5.55;;;15.00;35.50;;;;;;5034331;28;20060;-59
2021/03/05 11:19:17;;;;;;;36.22;9.75;;;16.40;33.80;;;;;;5033344;28;20083;-59
2021/03/05 11:21:44;;;;;;;19.52;5.30;;;17.00;32.50;;;;;;5032234;28;20325;-58
2021/03/05 11:24:12;;;;;;;13.75;4.55;;;17.70;30.70;;;;;;5034181;28;20056;-58
2021/03/05 11:26:42;;;;;;;36.47;9.10;;;18.50;30.40;;;;;;5037376;28;20057;-59
2021/03/05 11:29:09;;;;;;;;;;;19.50;28.50;;;;;;5037551;28;20345;-59
2021/03/05 11:31:37;;;;;;;13.20;3.72;;;19.90;27.90;;;;;;5038617;28;19916;-59
2021/03/05 11:34:05;;;;;;;25.48;5.85;;;19.40;28.40;;;;;;5041461;28;20360;-58
2021/03/05 11:36:32;;;;;;;8.80;3.22;;;20.30;28.00;;;;;;5035684;28;20136;-59
2021/03/05 11:39:00;;;;;;;14.82;5.28;;;20.50;25.80;;;;;;5036046;28;20045;-59
2021/03/05 11:41:28;;;;;;;63.78;23.30;;;20.20;27.90;;;;;;5035988;28;20323;-59
2021/03/05 11:43:56;;;;;;;21.60;8.93;;;22.20;24.40;;;;;;5031161;28;20060;-58
2021/03/05 11:46:23;;;;;;;14.15;6.03;;;20.60;26.20;;;;;;5033087;28;20050;-58
2021/03/05 11:48:53;;;;;;;109.82;37.42;;;21.20;26.10;;;;;;5033182;28;20046;-58
2021/03/05 11:51:20;;;;;;;;;;;21.30;24.40;;;;;;5032727;28;20605;-58
2021/03/05 11:53:47;;;;;;;19.15;8.60;;;20.40;24.50;;;;;;5037853;28;20204;-59
2021/03/05 11:56:16;;;;;;;13.82;6.18;;;21.00;23.90;;;;;;5034433;28;20336;-59
2021/03/05 11:58:43;;;;;;;36.50;14.15;;;21.60;23.90;;;;;;5037264;28;20045;-60
2021/03/05 12:01:12;;;;;;;12.63;4.35;;;20.10;24.60;;;;;;5035605;28;20071;-59
2021/03/05 12:03:40;;;;;;;11.83;5.70;;;18.70;26.90;;;;;;5031970;28;20069;-59
2021/03/05 12:06:09;;;;;;;12.23;4.47;;;17.30;30.00;;;;;;5033389;28;20060;-59
2021/03/05 12:08:36;;;;;;;9.63;4.13;;;15.90;31.80;;;;;;5035354;28;20049;-59
2021/03/05 12:11:05;;;;;;;10.20;4.10;;;14.50;34.00;;;;;;5032728;28;20042;-58
2021/03/05 12:13:32;;;;;;;9.20;2.47;;;13.90;34.30;;;;;;5036183;28;20426;-58
2021/03/05 12:15:59;;;;;;;7.60;3.28;;;12.40;36.70;;;;;;5037022;28;20215;-58
2021/03/05 12:18:26;;;;;;;5.70;2.55;;;12.00;38.30;;;;;;5031081;28;20053;-59
2021/03/05 12:20:54;;;;;;;5.00;2.03;;;11.60;39.30;;;;;;5036708;28;20045;-59
2021/03/05 12:23:22;;;;;;;6.78;1.90;;;10.90;39.80;;;;;;5038287;28;20251;-59
2021/03/05 12:25:49;;;;;;;6.75;2.75;;;10.50;41.00;;;;;;5017204;28;20066;-59
2021/03/05 12:28:16;;;;;;;7.47;2.40;;;10.60;41.20;;;;;;5035990;28;20121;-58
2021/03/05 12:30:43;;;;;;;6.95;2.08;;;10.20;41.00;;;;;;5039699;28;20068;-58
2021/03/05 12:33:10;;;;;;;9.77;3.45;;;10.30;41.50;;;;;;5036719;28;20225;-57
2021/03/05 12:35:37;;;;;;;4.70;1.83;;;10.30;41.30;;;;;;5038871;28;20077;-58
2021/03/05 12:38:07;;;;;;;4.07;1.55;;;10.70;40.80;;;;;;5034932;28;20047;-59
2021/03/05 12:40:35;;;;;;;3.55;1.60;;;12.80;37.60;;;;;;5041474;28;20049;-58
2021/03/05 12:43:04;;;;;;;9.35;2.40;;;14.00;33.50;;;;;;5034730;28;20049;-59
2021/03/05 12:45:31;;;;;;;10.07;2.83;;;15.80;31.40;;;;;;5035749;28;20056;-58
2021/03/05 12:47:58;;;;;;;8.13;3.47;;;17.20;28.60;;;;;;5033554;28;20161;-59
2021/03/05 12:50:30;;;;;;;3.97;1.60;;;18.40;27.80;;;;;;5041000;28;20049;-58
2021/03/05 12:52:58;;;;;;;5.90;2.30;;;18.80;26.10;;;;;;5033475;28;20041;-58
2021/03/05 12:55:25;;;;;;;3.10;1.38;;;18.10;26.90;;;;;;5033082;28;20077;-58
2021/03/05 12:57:53;;;;;;;7.10;2.13;;;17.10;28.40;;;;;;5037939;28;20060;-58
2021/03/05 13:00:26;;;;;;;8.05;2.78;;;16.50;29.40;;;;;;5038776;28;20057;-57
2021/03/05 13:02:53;;;;;;;3.85;1.67;;;16.10;30.60;;;;;;5034545;28;20099;-58
2021/03/05 13:05:20;;;;;;;10.38;2.38;;;16.30;29.70;;;;;;5037463;28;20049;-57
2021/03/05 13:07:47;;;;;;;5.45;1.90;;;14.90;32.10;;;;;;5008681;28;20057;-57
2021/03/05 13:10:18;;;;;;;4.18;1.60;;;13.40;32.60;;;;;;5038338;28;20049;-58
2021/03/05 13:12:45;;;;;;;4.57;1.75;;;12.20;33.50;;;;;;5031567;28;20143;-59